sensor_id;sensor_type;location;lat;lon;timestamp;temperature;humidity
77523;SHT31;66637;-29.628;-49.938;2024-03-02T00:00:42;25.03;94.37
77523;SHT31;66637;-29.628;-49.938;2024-03-02T00:03:13;25.03;94.36
77523;SHT31;66637;-29.628;-49.938;2024-03-02T00:05:51;25.03;94.32
77523;SHT31;66637;-29.628;-49.938;2024-03-02T00:08:25;25.01;94.29
77523;SHT31;66637;-29.628;-49.938;2024-03-02T00:10:59;25.03;94.30
77523;SHT31;66637;-29.628;-49.938;2024-03-02T00:13:31;25.01;94.26
77523;SHT31;66637;-29.628;-49.938;2024-03-02T00:16:04;25.00;94.24
77523;SHT31;66637;-29.628;-49.938;2024-03-02T00:18:37;24.98;94.17
77523;SHT31;66637;-29.628;-49.938;2024-03-02T00:21:09;24.97;94.04
77523;SHT31;66637;-29.628;-49.938;2024-03-02T00:23:42;24.97;94.10
77523;SHT31;66637;-29.628;-49.938;2024-03-02T00:26:13;24.98;94.10
77523;SHT31;66637;-29.628;-49.938;2024-03-02T00:28:46;24.98;94.05
77523;SHT31;66637;-29.628;-49.938;2024-03-02T00:31:20;24.98;94.11
77523;SHT31;66637;-29.628;-49.938;2024-03-02T00:33:50;24.94;94.08
77523;SHT31;66637;-29.628;-49.938;2024-03-02T00:36:25;24.91;94.05
77523;SHT31;66637;-29.628;-49.938;2024-03-02T00:38:57;24.91;94.05
77523;SHT31;66637;-29.628;-49.938;2024-03-02T00:41:30;24.92;93.98
77523;SHT31;66637;-29.628;-49.938;2024-03-02T00:44:05;24.88;93.95
77523;SHT31;66637;-29.628;-49.938;2024-03-02T00:46:37;24.94;93.73
77523;SHT31;66637;-29.628;-49.938;2024-03-02T00:49:22;24.94;93.77
77523;SHT31;66637;-29.628;-49.938;2024-03-02T00:51:55;24.97;93.54
77523;SHT31;66637;-29.628;-49.938;2024-03-02T00:54:26;24.97;93.64
77523;SHT31;66637;-29.628;-49.938;2024-03-02T00:56:59;24.94;93.79
77523;SHT31;66637;-29.628;-49.938;2024-03-02T00:59:31;24.92;93.83
77523;SHT31;66637;-29.628;-49.938;2024-03-02T01:02:03;24.88;93.92
77523;SHT31;66637;-29.628;-49.938;2024-03-02T01:04:34;24.84;93.87
77523;SHT31;66637;-29.628;-49.938;2024-03-02T01:07:06;24.86;93.83
77523;SHT31;66637;-29.628;-49.938;2024-03-02T01:09:38;24.88;93.72
77523;SHT31;66637;-29.628;-49.938;2024-03-02T01:12:09;24.88;93.73
77523;SHT31;66637;-29.628;-49.938;2024-03-02T01:14:40;24.91;93.64
77523;SHT31;66637;-29.628;-49.938;2024-03-02T01:17:11;24.94;93.54
77523;SHT31;66637;-29.628;-49.938;2024-03-02T01:19:43;24.91;93.57
77523;SHT31;66637;-29.628;-49.938;2024-03-02T01:22:16;24.91;93.51
77523;SHT31;66637;-29.628;-49.938;2024-03-02T01:24:50;24.92;93.43
77523;SHT31;66637;-29.628;-49.938;2024-03-02T01:27:21;24.95;93.35
77523;SHT31;66637;-29.628;-49.938;2024-03-02T01:29:54;25.00;92.93
77523;SHT31;66637;-29.628;-49.938;2024-03-02T01:32:25;25.06;92.81
77523;SHT31;66637;-29.628;-49.938;2024-03-02T01:34:58;25.07;92.76
77523;SHT31;66637;-29.628;-49.938;2024-03-02T01:37:29;25.08;92.77
77523;SHT31;66637;-29.628;-49.938;2024-03-02T01:40:00;25.11;92.78
77523;SHT31;66637;-29.628;-49.938;2024-03-02T01:42:31;25.08;92.66
77523;SHT31;66637;-29.628;-49.938;2024-03-02T01:45:03;25.08;92.59
77523;SHT31;66637;-29.628;-49.938;2024-03-02T01:47:35;25.12;92.43
77523;SHT31;66637;-29.628;-49.938;2024-03-02T01:50:06;25.10;92.39
77523;SHT31;66637;-29.628;-49.938;2024-03-02T01:52:38;25.14;92.33
77523;SHT31;66637;-29.628;-49.938;2024-03-02T01:55:09;25.14;92.15
77523;SHT31;66637;-29.628;-49.938;2024-03-02T01:57:41;25.11;92.20
77523;SHT31;66637;-29.628;-49.938;2024-03-02T02:00:13;25.14;92.13
77523;SHT31;66637;-29.628;-49.938;2024-03-02T02:02:44;25.10;92.31
77523;SHT31;66637;-29.628;-49.938;2024-03-02T02:05:17;25.08;92.21
77523;SHT31;66637;-29.628;-49.938;2024-03-02T02:07:49;25.07;92.27
77523;SHT31;66637;-29.628;-49.938;2024-03-02T02:10:20;25.08;92.31
77523;SHT31;66637;-29.628;-49.938;2024-03-02T02:12:50;25.04;92.41
77523;SHT31;66637;-29.628;-49.938;2024-03-02T02:15:30;25.01;92.45
77523;SHT31;66637;-29.628;-49.938;2024-03-02T02:18:02;25.00;92.45
77523;SHT31;66637;-29.628;-49.938;2024-03-02T02:20:35;24.98;92.35
77523;SHT31;66637;-29.628;-49.938;2024-03-02T02:23:06;24.97;92.46
77523;SHT31;66637;-29.628;-49.938;2024-03-02T02:25:43;25.00;92.37
77523;SHT31;66637;-29.628;-49.938;2024-03-02T02:28:14;24.98;92.50
77523;SHT31;66637;-29.628;-49.938;2024-03-02T02:30:48;24.95;92.48
77523;SHT31;66637;-29.628;-49.938;2024-03-02T02:33:24;24.97;92.51
77523;SHT31;66637;-29.628;-49.938;2024-03-02T02:35:56;24.97;92.55
77523;SHT31;66637;-29.628;-49.938;2024-03-02T02:38:27;24.95;92.54
77523;SHT31;66637;-29.628;-49.938;2024-03-02T02:41:00;24.92;92.68
77523;SHT31;66637;-29.628;-49.938;2024-03-02T02:43:31;24.92;92.64
77523;SHT31;66637;-29.628;-49.938;2024-03-02T02:46:04;24.91;92.72
77523;SHT31;66637;-29.628;-49.938;2024-03-02T02:48:35;24.91;92.68
77523;SHT31;66637;-29.628;-49.938;2024-03-02T02:51:07;24.95;92.58
77523;SHT31;66637;-29.628;-49.938;2024-03-02T02:53:37;24.91;92.66
77523;SHT31;66637;-29.628;-49.938;2024-03-02T02:56:10;24.94;92.84
77523;SHT31;66637;-29.628;-49.938;2024-03-02T02:58:41;24.92;92.73
77523;SHT31;66637;-29.628;-49.938;2024-03-02T03:01:12;24.94;92.90
77523;SHT31;66637;-29.628;-49.938;2024-03-02T03:03:43;24.95;92.91
77523;SHT31;66637;-29.628;-49.938;2024-03-02T03:06:15;24.95;92.89
77523;SHT31;66637;-29.628;-49.938;2024-03-02T03:08:46;24.97;93.08
77523;SHT31;66637;-29.628;-49.938;2024-03-02T03:11:16;24.98;93.07
77523;SHT31;66637;-29.628;-49.938;2024-03-02T03:13:50;25.03;93.02
77523;SHT31;66637;-29.628;-49.938;2024-03-02T03:16:21;25.04;92.90
77523;SHT31;66637;-29.628;-49.938;2024-03-02T03:18:52;25.11;93.02
77523;SHT31;66637;-29.628;-49.938;2024-03-02T03:21:26;25.14;93.05
77523;SHT31;66637;-29.628;-49.938;2024-03-02T03:23:58;25.14;93.00
77523;SHT31;66637;-29.628;-49.938;2024-03-02T03:26:30;25.11;92.91
77523;SHT31;66637;-29.628;-49.938;2024-03-02T03:29:01;25.06;92.90
77523;SHT31;66637;-29.628;-49.938;2024-03-02T03:31:32;25.06;92.88
77523;SHT31;66637;-29.628;-49.938;2024-03-02T03:34:03;25.00;92.88
77523;SHT31;66637;-29.628;-49.938;2024-03-02T03:36:33;24.97;92.84
77523;SHT31;66637;-29.628;-49.938;2024-03-02T03:39:07;24.91;92.55
77523;SHT31;66637;-29.628;-49.938;2024-03-02T03:41:40;24.97;92.55
77523;SHT31;66637;-29.628;-49.938;2024-03-02T03:44:10;24.87;92.22
77523;SHT31;66637;-29.628;-49.938;2024-03-02T03:46:42;24.87;92.27
77523;SHT31;66637;-29.628;-49.938;2024-03-02T03:49:12;24.87;92.14
77523;SHT31;66637;-29.628;-49.938;2024-03-02T03:51:43;24.86;92.13
77523;SHT31;66637;-29.628;-49.938;2024-03-02T03:54:13;24.83;92.02
77523;SHT31;66637;-29.628;-49.938;2024-03-02T03:56:44;24.86;91.93
77523;SHT31;66637;-29.628;-49.938;2024-03-02T03:59:15;24.86;92.07
77523;SHT31;66637;-29.628;-49.938;2024-03-02T04:01:46;24.92;92.05
77523;SHT31;66637;-29.628;-49.938;2024-03-02T04:04:18;24.90;92.18
77523;SHT31;66637;-29.628;-49.938;2024-03-02T04:06:49;24.87;92.26
77523;SHT31;66637;-29.628;-49.938;2024-03-02T04:09:20;24.90;92.50
77523;SHT31;66637;-29.628;-49.938;2024-03-02T04:11:50;24.92;92.44
77523;SHT31;66637;-29.628;-49.938;2024-03-02T04:14:22;24.92;92.39
77523;SHT31;66637;-29.628;-49.938;2024-03-02T04:16:53;24.95;92.32
77523;SHT31;66637;-29.628;-49.938;2024-03-02T04:19:26;24.92;92.18
77523;SHT31;66637;-29.628;-49.938;2024-03-02T04:22:14;24.98;92.38
77523;SHT31;66637;-29.628;-49.938;2024-03-02T04:24:53;24.92;92.28
77523;SHT31;66637;-29.628;-49.938;2024-03-02T04:27:25;24.90;92.47
77523;SHT31;66637;-29.628;-49.938;2024-03-02T04:29:56;24.90;92.44
77523;SHT31;66637;-29.628;-49.938;2024-03-02T04:32:29;24.88;92.43
77523;SHT31;66637;-29.628;-49.938;2024-03-02T04:35:00;24.92;92.51
77523;SHT31;66637;-29.628;-49.938;2024-03-02T04:37:34;24.90;92.55
77523;SHT31;66637;-29.628;-49.938;2024-03-02T04:40:06;24.91;92.68
77523;SHT31;66637;-29.628;-49.938;2024-03-02T04:42:40;24.86;92.58
77523;SHT31;66637;-29.628;-49.938;2024-03-02T04:45:11;24.86;92.79
77523;SHT31;66637;-29.628;-49.938;2024-03-02T04:47:42;24.81;92.84
77523;SHT31;66637;-29.628;-49.938;2024-03-02T04:50:17;24.79;92.89
77523;SHT31;66637;-29.628;-49.938;2024-03-02T04:52:48;24.79;92.98
77523;SHT31;66637;-29.628;-49.938;2024-03-02T04:55:18;24.73;92.98
77523;SHT31;66637;-29.628;-49.938;2024-03-02T04:57:49;24.76;92.98
77523;SHT31;66637;-29.628;-49.938;2024-03-02T05:00:22;24.74;92.95
77523;SHT31;66637;-29.628;-49.938;2024-03-02T05:02:53;24.76;92.99
77523;SHT31;66637;-29.628;-49.938;2024-03-02T05:05:23;24.73;92.89
77523;SHT31;66637;-29.628;-49.938;2024-03-02T05:07:54;24.76;92.92
77523;SHT31;66637;-29.628;-49.938;2024-03-02T05:10:25;24.71;92.98
77523;SHT31;66637;-29.628;-49.938;2024-03-02T05:12:56;24.70;93.03
77523;SHT31;66637;-29.628;-49.938;2024-03-02T05:15:30;24.71;93.09
77523;SHT31;66637;-29.628;-49.938;2024-03-02T05:18:00;24.69;93.28
77523;SHT31;66637;-29.628;-49.938;2024-03-02T05:20:38;24.70;93.25
77523;SHT31;66637;-29.628;-49.938;2024-03-02T05:23:09;24.69;93.32
77523;SHT31;66637;-29.628;-49.938;2024-03-02T05:25:41;24.70;93.48
77523;SHT31;66637;-29.628;-49.938;2024-03-02T05:28:12;24.66;93.62
77523;SHT31;66637;-29.628;-49.938;2024-03-02T05:30:44;24.66;93.53
77523;SHT31;66637;-29.628;-49.938;2024-03-02T05:33:18;24.66;93.41
77523;SHT31;66637;-29.628;-49.938;2024-03-02T05:35:49;24.67;93.56
77523;SHT31;66637;-29.628;-49.938;2024-03-02T05:38:20;24.67;93.51
77523;SHT31;66637;-29.628;-49.938;2024-03-02T05:40:52;24.67;93.62
77523;SHT31;66637;-29.628;-49.938;2024-03-02T05:43:22;24.66;93.76
77523;SHT31;66637;-29.628;-49.938;2024-03-02T05:45:53;24.63;93.56
77523;SHT31;66637;-29.628;-49.938;2024-03-02T05:48:24;24.59;93.77
77523;SHT31;66637;-29.628;-49.938;2024-03-02T05:50:55;24.63;93.82
77523;SHT31;66637;-29.628;-49.938;2024-03-02T05:53:26;24.59;93.82
77523;SHT31;66637;-29.628;-49.938;2024-03-02T05:55:57;24.56;93.74
77523;SHT31;66637;-29.628;-49.938;2024-03-02T05:58:32;24.59;93.91
77523;SHT31;66637;-29.628;-49.938;2024-03-02T06:01:09;24.60;93.84
77523;SHT31;66637;-29.628;-49.938;2024-03-02T06:03:40;24.59;93.83
77523;SHT31;66637;-29.628;-49.938;2024-03-02T06:06:11;24.57;93.98
77523;SHT31;66637;-29.628;-49.938;2024-03-02T06:08:42;24.53;93.92
77523;SHT31;66637;-29.628;-49.938;2024-03-02T06:11:14;24.50;94.03
77523;SHT31;66637;-29.628;-49.938;2024-03-02T06:13:45;24.46;94.11
77523;SHT31;66637;-29.628;-49.938;2024-03-02T06:16:16;24.39;94.07
77523;SHT31;66637;-29.628;-49.938;2024-03-02T06:18:47;24.39;94.03
77523;SHT31;66637;-29.628;-49.938;2024-03-02T06:21:18;24.40;94.26
77523;SHT31;66637;-29.628;-49.938;2024-03-02T06:23:48;24.40;94.24
77523;SHT31;66637;-29.628;-49.938;2024-03-02T06:26:21;24.39;94.15
77523;SHT31;66637;-29.628;-49.938;2024-03-02T06:28:55;24.35;94.24
77523;SHT31;66637;-29.628;-49.938;2024-03-02T06:31:26;24.36;94.33
77523;SHT31;66637;-29.628;-49.938;2024-03-02T06:33:56;24.35;94.37
77523;SHT31;66637;-29.628;-49.938;2024-03-02T06:36:26;24.32;94.51
77523;SHT31;66637;-29.628;-49.938;2024-03-02T06:38:57;24.30;94.20
77523;SHT31;66637;-29.628;-49.938;2024-03-02T06:41:28;24.32;94.24
77523;SHT31;66637;-29.628;-49.938;2024-03-02T06:43:59;24.30;94.16
77523;SHT31;66637;-29.628;-49.938;2024-03-02T06:46:32;24.32;94.33
77523;SHT31;66637;-29.628;-49.938;2024-03-02T06:49:02;24.32;94.28
77523;SHT31;66637;-29.628;-49.938;2024-03-02T06:51:35;24.33;94.54
77523;SHT31;66637;-29.628;-49.938;2024-03-02T06:54:06;24.35;94.37
77523;SHT31;66637;-29.628;-49.938;2024-03-02T06:56:38;24.33;94.21
77523;SHT31;66637;-29.628;-49.938;2024-03-02T06:59:10;24.37;94.53
77523;SHT31;66637;-29.628;-49.938;2024-03-02T07:01:40;24.36;94.59
77523;SHT31;66637;-29.628;-49.938;2024-03-02T07:04:13;24.39;94.52
77523;SHT31;66637;-29.628;-49.938;2024-03-02T07:06:45;24.39;94.58
77523;SHT31;66637;-29.628;-49.938;2024-03-02T07:09:16;24.40;94.74
77523;SHT31;66637;-29.628;-49.938;2024-03-02T07:11:47;24.39;94.49
77523;SHT31;66637;-29.628;-49.938;2024-03-02T07:14:19;24.44;94.70
77523;SHT31;66637;-29.628;-49.938;2024-03-02T07:16:52;24.41;94.75
77523;SHT31;66637;-29.628;-49.938;2024-03-02T07:19:23;24.40;94.76
77523;SHT31;66637;-29.628;-49.938;2024-03-02T07:21:53;24.41;94.80
77523;SHT31;66637;-29.628;-49.938;2024-03-02T07:24:24;24.47;94.65
77523;SHT31;66637;-29.628;-49.938;2024-03-02T07:26:55;24.44;94.59
77523;SHT31;66637;-29.628;-49.938;2024-03-02T07:29:26;24.46;94.72
77523;SHT31;66637;-29.628;-49.938;2024-03-02T07:31:58;24.43;94.69
77523;SHT31;66637;-29.628;-49.938;2024-03-02T07:34:28;24.44;94.80
77523;SHT31;66637;-29.628;-49.938;2024-03-02T07:37:01;24.44;94.75
77523;SHT31;66637;-29.628;-49.938;2024-03-02T07:39:35;24.41;94.65
77523;SHT31;66637;-29.628;-49.938;2024-03-02T07:42:05;24.39;94.70
77523;SHT31;66637;-29.628;-49.938;2024-03-02T07:44:36;24.39;94.87
77523;SHT31;66637;-29.628;-49.938;2024-03-02T07:47:09;24.39;94.79
77523;SHT31;66637;-29.628;-49.938;2024-03-02T07:49:41;24.40;94.75
77523;SHT31;66637;-29.628;-49.938;2024-03-02T07:52:13;24.40;94.84
77523;SHT31;66637;-29.628;-49.938;2024-03-02T07:54:43;24.37;94.76
77523;SHT31;66637;-29.628;-49.938;2024-03-02T07:57:14;24.37;94.85
77523;SHT31;66637;-29.628;-49.938;2024-03-02T07:59:45;24.39;94.82
77523;SHT31;66637;-29.628;-49.938;2024-03-02T08:02:18;24.35;94.87
77523;SHT31;66637;-29.628;-49.938;2024-03-02T08:04:50;24.33;94.86
77523;SHT31;66637;-29.628;-49.938;2024-03-02T08:07:22;24.30;95.02
77523;SHT31;66637;-29.628;-49.938;2024-03-02T08:09:52;24.32;95.09
77523;SHT31;66637;-29.628;-49.938;2024-03-02T08:12:23;24.32;95.19
77523;SHT31;66637;-29.628;-49.938;2024-03-02T08:14:55;24.29;95.14
77523;SHT31;66637;-29.628;-49.938;2024-03-02T08:17:26;24.30;95.14
77523;SHT31;66637;-29.628;-49.938;2024-03-02T08:19:56;24.28;95.23
77523;SHT31;66637;-29.628;-49.938;2024-03-02T08:22:27;24.26;95.11
77523;SHT31;66637;-29.628;-49.938;2024-03-02T08:24:58;24.28;95.21
77523;SHT31;66637;-29.628;-49.938;2024-03-02T08:27:31;24.23;95.33
77523;SHT31;66637;-29.628;-49.938;2024-03-02T08:30:02;24.26;95.29
77523;SHT31;66637;-29.628;-49.938;2024-03-02T08:32:36;24.22;95.37
77523;SHT31;66637;-29.628;-49.938;2024-03-02T08:35:07;24.25;95.37
77523;SHT31;66637;-29.628;-49.938;2024-03-02T08:37:42;24.23;95.25
77523;SHT31;66637;-29.628;-49.938;2024-03-02T08:40:16;24.20;95.22
77523;SHT31;66637;-29.628;-49.938;2024-03-02T08:42:47;24.20;95.39
77523;SHT31;66637;-29.628;-49.938;2024-03-02T08:45:19;24.18;95.26
77523;SHT31;66637;-29.628;-49.938;2024-03-02T08:47:50;24.18;95.44
77523;SHT31;66637;-29.628;-49.938;2024-03-02T08:50:21;24.16;95.47
77523;SHT31;66637;-29.628;-49.938;2024-03-02T08:52:52;24.13;95.52
77523;SHT31;66637;-29.628;-49.938;2024-03-02T08:55:24;24.16;95.51
77523;SHT31;66637;-29.628;-49.938;2024-03-02T08:57:56;24.18;95.65
77523;SHT31;66637;-29.628;-49.938;2024-03-02T09:00:27;24.18;95.68
77523;SHT31;66637;-29.628;-49.938;2024-03-02T09:02:57;24.16;95.59
77523;SHT31;66637;-29.628;-49.938;2024-03-02T09:05:29;24.16;95.59
77523;SHT31;66637;-29.628;-49.938;2024-03-02T09:08:01;24.15;95.58
77523;SHT31;66637;-29.628;-49.938;2024-03-02T09:10:34;24.18;95.56
77523;SHT31;66637;-29.628;-49.938;2024-03-02T09:13:05;24.16;95.53
77523;SHT31;66637;-29.628;-49.938;2024-03-02T09:15:36;24.13;95.55
77523;SHT31;66637;-29.628;-49.938;2024-03-02T09:18:10;24.13;95.55
77523;SHT31;66637;-29.628;-49.938;2024-03-02T09:20:42;24.18;95.42
77523;SHT31;66637;-29.628;-49.938;2024-03-02T09:23:14;24.18;95.29
77523;SHT31;66637;-29.628;-49.938;2024-03-02T09:25:44;24.18;95.28
77523;SHT31;66637;-29.628;-49.938;2024-03-02T09:28:17;24.18;95.33
77523;SHT31;66637;-29.628;-49.938;2024-03-02T09:30:49;24.20;95.10
77523;SHT31;66637;-29.628;-49.938;2024-03-02T09:33:20;24.23;94.95
77523;SHT31;66637;-29.628;-49.938;2024-03-02T09:35:51;24.23;94.93
77523;SHT31;66637;-29.628;-49.938;2024-03-02T09:38:23;24.32;94.79
77523;SHT31;66637;-29.628;-49.938;2024-03-02T09:40:55;24.36;94.69
77523;SHT31;66637;-29.628;-49.938;2024-03-02T09:43:26;24.41;94.65
77523;SHT31;66637;-29.628;-49.938;2024-03-02T09:45:58;24.43;94.65
77523;SHT31;66637;-29.628;-49.938;2024-03-02T09:48:29;24.46;94.58
77523;SHT31;66637;-29.628;-49.938;2024-03-02T09:51:01;24.49;94.44
77523;SHT31;66637;-29.628;-49.938;2024-03-02T09:53:36;24.55;94.38
77523;SHT31;66637;-29.628;-49.938;2024-03-02T09:56:08;24.60;94.31
77523;SHT31;66637;-29.628;-49.938;2024-03-02T09:58:40;24.61;94.24
77523;SHT31;66637;-29.628;-49.938;2024-03-02T10:01:12;24.67;94.26
77523;SHT31;66637;-29.628;-49.938;2024-03-02T10:03:45;24.73;94.25
77523;SHT31;66637;-29.628;-49.938;2024-03-02T10:06:25;24.77;94.23
77523;SHT31;66637;-29.628;-49.938;2024-03-02T10:08:56;24.79;94.04
77523;SHT31;66637;-29.628;-49.938;2024-03-02T10:14:10;24.86;93.97
77523;SHT31;66637;-29.628;-49.938;2024-03-02T10:16:42;24.86;93.72
77523;SHT31;66637;-29.628;-49.938;2024-03-02T10:19:25;24.91;93.93
77523;SHT31;66637;-29.628;-49.938;2024-03-02T10:21:57;24.86;93.51
77523;SHT31;66637;-29.628;-49.938;2024-03-02T10:24:37;24.94;93.54
77523;SHT31;66637;-29.628;-49.938;2024-03-02T10:27:10;24.88;93.35
77523;SHT31;66637;-29.628;-49.938;2024-03-02T10:29:48;25.00;93.37
77523;SHT31;66637;-29.628;-49.938;2024-03-02T10:32:22;24.98;93.20
77523;SHT31;66637;-29.628;-49.938;2024-03-02T10:34:54;25.01;93.10
77523;SHT31;66637;-29.628;-49.938;2024-03-02T10:37:26;25.46;92.93
77523;SHT31;66637;-29.628;-49.938;2024-03-02T10:39:56;26.65;90.99
77523;SHT31;66637;-29.628;-49.938;2024-03-02T10:42:27;27.43;89.62
77523;SHT31;66637;-29.628;-49.938;2024-03-02T10:44:58;28.09;87.53
77523;SHT31;66637;-29.628;-49.938;2024-03-02T10:47:30;28.48;85.06
77523;SHT31;66637;-29.628;-49.938;2024-03-02T10:50:04;29.04;83.42
77523;SHT31;66637;-29.628;-49.938;2024-03-02T10:52:38;29.30;81.98
77523;SHT31;66637;-29.628;-49.938;2024-03-02T10:55:10;29.59;80.88
77523;SHT31;66637;-29.628;-49.938;2024-03-02T10:57:50;29.52;81.06
77523;SHT31;66637;-29.628;-49.938;2024-03-02T11:00:24;29.35;80.58
77523;SHT31;66637;-29.628;-49.938;2024-03-02T11:03:07;29.27;81.18
77523;SHT31;66637;-29.628;-49.938;2024-03-02T11:05:44;29.57;80.09
77523;SHT31;66637;-29.628;-49.938;2024-03-02T11:08:18;29.42;80.46
77523;SHT31;66637;-29.628;-49.938;2024-03-02T11:11:04;29.49;80.56
77523;SHT31;66637;-29.628;-49.938;2024-03-02T11:13:38;29.72;79.33
77523;SHT31;66637;-29.628;-49.938;2024-03-02T11:16:20;29.93;79.04
77523;SHT31;66637;-29.628;-49.938;2024-03-02T11:18:59;29.77;79.33
77523;SHT31;66637;-29.628;-49.938;2024-03-02T11:21:32;29.80;79.48
77523;SHT31;66637;-29.628;-49.938;2024-03-02T11:24:29;30.24;78.76
77523;SHT31;66637;-29.628;-49.938;2024-03-02T11:27:06;30.31;78.39
77523;SHT31;66637;-29.628;-49.938;2024-03-02T11:29:46;30.18;78.17
77523;SHT31;66637;-29.628;-49.938;2024-03-02T11:32:22;30.41;78.86
77523;SHT31;66637;-29.628;-49.938;2024-03-02T11:34:56;30.54;77.21
77523;SHT31;66637;-29.628;-49.938;2024-03-02T11:37:27;30.69;77.34
77523;SHT31;66637;-29.628;-49.938;2024-03-02T11:39:59;30.29;78.17
77523;SHT31;66637;-29.628;-49.938;2024-03-02T11:42:30;30.45;78.12
77523;SHT31;66637;-29.628;-49.938;2024-03-02T11:45:01;30.92;77.04
77523;SHT31;66637;-29.628;-49.938;2024-03-02T11:47:32;31.16;76.46
77523;SHT31;66637;-29.628;-49.938;2024-03-02T11:50:07;30.93;77.45
77523;SHT31;66637;-29.628;-49.938;2024-03-02T11:52:40;30.85;77.74
77523;SHT31;66637;-29.628;-49.938;2024-03-02T11:55:14;30.68;76.77
77523;SHT31;66637;-29.628;-49.938;2024-03-02T11:57:46;30.78;77.03
77523;SHT31;66637;-29.628;-49.938;2024-03-02T12:00:27;30.83;78.32
77523;SHT31;66637;-29.628;-49.938;2024-03-02T12:03:02;30.89;76.12
77523;SHT31;66637;-29.628;-49.938;2024-03-02T12:05:35;31.02;76.09
77523;SHT31;66637;-29.628;-49.938;2024-03-02T12:08:06;30.95;75.49
77523;SHT31;66637;-29.628;-49.938;2024-03-02T12:10:38;30.86;76.89
77523;SHT31;66637;-29.628;-49.938;2024-03-02T12:13:08;31.03;76.45
77523;SHT31;66637;-29.628;-49.938;2024-03-02T12:15:44;30.93;76.02
77523;SHT31;66637;-29.628;-49.938;2024-03-02T12:18:14;31.12;75.41
77523;SHT31;66637;-29.628;-49.938;2024-03-02T12:20:44;31.15;75.40
77523;SHT31;66637;-29.628;-49.938;2024-03-02T12:23:14;30.99;77.63
77523;SHT31;66637;-29.628;-49.938;2024-03-02T12:25:45;30.76;76.11
77523;SHT31;66637;-29.628;-49.938;2024-03-02T12:28:16;30.58;76.76
77523;SHT31;66637;-29.628;-49.938;2024-03-02T12:30:47;30.55;76.62
77523;SHT31;66637;-29.628;-49.938;2024-03-02T12:33:20;30.57;76.77
77523;SHT31;66637;-29.628;-49.938;2024-03-02T12:35:54;30.52;76.87
77523;SHT31;66637;-29.628;-49.938;2024-03-02T12:38:25;30.10;78.35
77523;SHT31;66637;-29.628;-49.938;2024-03-02T12:40:56;29.86;79.15
77523;SHT31;66637;-29.628;-49.938;2024-03-02T12:43:30;30.18;78.69
77523;SHT31;66637;-29.628;-49.938;2024-03-02T12:46:01;30.17;77.63
77523;SHT31;66637;-29.628;-49.938;2024-03-02T12:48:32;30.14;77.74
77523;SHT31;66637;-29.628;-49.938;2024-03-02T12:51:02;30.16;77.84
77523;SHT31;66637;-29.628;-49.938;2024-03-02T12:53:34;30.01;78.53
77523;SHT31;66637;-29.628;-49.938;2024-03-02T12:56:08;30.07;78.38
77523;SHT31;66637;-29.628;-49.938;2024-03-02T12:58:41;29.88;78.98
77523;SHT31;66637;-29.628;-49.938;2024-03-02T13:01:15;29.96;78.72
77523;SHT31;66637;-29.628;-49.938;2024-03-02T13:03:49;29.94;78.52
77523;SHT31;66637;-29.628;-49.938;2024-03-02T13:06:25;29.91;78.99
77523;SHT31;66637;-29.628;-49.938;2024-03-02T13:08:58;30.00;79.13
77523;SHT31;66637;-29.628;-49.938;2024-03-02T13:11:29;30.21;77.27
77523;SHT31;66637;-29.628;-49.938;2024-03-02T13:14:00;30.29;77.94
77523;SHT31;66637;-29.628;-49.938;2024-03-02T13:16:31;30.11;77.42
77523;SHT31;66637;-29.628;-49.938;2024-03-02T13:19:14;29.98;78.44
77523;SHT31;66637;-29.628;-49.938;2024-03-02T13:21:44;29.72;79.48
77523;SHT31;66637;-29.628;-49.938;2024-03-02T13:24:14;29.90;79.14
77523;SHT31;66637;-29.628;-49.938;2024-03-02T13:26:44;30.27;79.17
77523;SHT31;66637;-29.628;-49.938;2024-03-02T13:29:14;30.24;78.18
77523;SHT31;66637;-29.628;-49.938;2024-03-02T13:31:49;30.55;77.64
77523;SHT31;66637;-29.628;-49.938;2024-03-02T13:34:21;30.67;77.11
77523;SHT31;66637;-29.628;-49.938;2024-03-02T13:36:51;30.71;76.65
77523;SHT31;66637;-29.628;-49.938;2024-03-02T13:39:23;30.89;75.79
77523;SHT31;66637;-29.628;-49.938;2024-03-02T13:41:54;31.00;74.58
77523;SHT31;66637;-29.628;-49.938;2024-03-02T13:44:35;31.00;75.68
77523;SHT31;66637;-29.628;-49.938;2024-03-02T13:47:06;31.12;75.88
77523;SHT31;66637;-29.628;-49.938;2024-03-02T13:49:36;31.10;75.11
77523;SHT31;66637;-29.628;-49.938;2024-03-02T13:52:09;30.81;75.82
77523;SHT31;66637;-29.628;-49.938;2024-03-02T13:54:46;31.13;76.11
77523;SHT31;66637;-29.628;-49.938;2024-03-02T13:57:18;30.96;74.91
77523;SHT31;66637;-29.628;-49.938;2024-03-02T13:59:54;31.08;75.19
77523;SHT31;66637;-29.628;-49.938;2024-03-02T14:02:24;31.06;74.83
77523;SHT31;66637;-29.628;-49.938;2024-03-02T14:04:55;30.99;75.86
77523;SHT31;66637;-29.628;-49.938;2024-03-02T14:07:25;31.22;76.41
77523;SHT31;66637;-29.628;-49.938;2024-03-02T14:09:55;31.03;75.05
77523;SHT31;66637;-29.628;-49.938;2024-03-02T14:12:26;30.83;76.96
77523;SHT31;66637;-29.628;-49.938;2024-03-02T14:14:56;30.82;76.21
77523;SHT31;66637;-29.628;-49.938;2024-03-02T14:17:31;30.68;76.27
77523;SHT31;66637;-29.628;-49.938;2024-03-02T14:20:02;30.74;77.08
77523;SHT31;66637;-29.628;-49.938;2024-03-02T14:22:34;30.75;76.11
77523;SHT31;66637;-29.628;-49.938;2024-03-02T14:25:07;30.57;76.96
77523;SHT31;66637;-29.628;-49.938;2024-03-02T14:27:37;30.45;76.87
77523;SHT31;66637;-29.628;-49.938;2024-03-02T14:30:28;30.42;76.93
77523;SHT31;66637;-29.628;-49.938;2024-03-02T14:32:58;30.07;78.14
77523;SHT31;66637;-29.628;-49.938;2024-03-02T14:35:29;30.39;77.84
77523;SHT31;66637;-29.628;-49.938;2024-03-02T14:37:59;30.29;76.79
77523;SHT31;66637;-29.628;-49.938;2024-03-02T14:40:29;30.27;77.14
77523;SHT31;66637;-29.628;-49.938;2024-03-02T14:43:00;30.57;76.67
77523;SHT31;66637;-29.628;-49.938;2024-03-02T14:45:30;30.55;76.44
77523;SHT31;66637;-29.628;-49.938;2024-03-02T14:48:02;30.41;76.33
77523;SHT31;66637;-29.628;-49.938;2024-03-02T14:50:33;30.17;76.59
77523;SHT31;66637;-29.628;-49.938;2024-03-02T14:53:03;30.11;77.81
77523;SHT31;66637;-29.628;-49.938;2024-03-02T14:55:36;30.32;76.71
77523;SHT31;66637;-29.628;-49.938;2024-03-02T14:58:10;30.55;76.54
77523;SHT31;66637;-29.628;-49.938;2024-03-02T15:00:40;30.39;76.46
77523;SHT31;66637;-29.628;-49.938;2024-03-02T15:03:12;30.10;77.40
77523;SHT31;66637;-29.628;-49.938;2024-03-02T15:05:42;30.20;77.03
77523;SHT31;66637;-29.628;-49.938;2024-03-02T15:08:12;30.10;76.93
77523;SHT31;66637;-29.628;-49.938;2024-03-02T15:10:46;30.13;77.03
77523;SHT31;66637;-29.628;-49.938;2024-03-02T15:13:16;30.08;77.14
77523;SHT31;66637;-29.628;-49.938;2024-03-02T15:15:46;30.39;78.99
77523;SHT31;66637;-29.628;-49.938;2024-03-02T15:18:17;30.13;77.25
77523;SHT31;66637;-29.628;-49.938;2024-03-02T15:20:47;30.01;77.58